createdAt,value
2022-08-17T00:00:43.835Z,6.30
2022-08-17T00:03:41.997Z,5.97
2022-08-17T00:06:29.985Z,5.65
2022-08-17T00:09:18.499Z,4.93
2022-08-17T00:12:41.114Z,5.32
2022-08-17T00:15:13.943Z,5.93
2022-08-17T00:17:59.853Z,5.93
2022-08-17T00:20:46.445Z,6.10
2022-08-17T00:23:32.860Z,6.10
2022-08-17T00:26:44.496Z,6.00
2022-08-17T00:29:26.858Z,6.07
2022-08-17T00:33:14.245Z,6.07
2022-08-17T00:35:27.710Z,5.95
2022-08-17T00:38:14.229Z,5.82
2022-08-17T00:43:59.142Z,5.88
2022-08-17T00:46:45.417Z,6.32
2022-08-17T00:49:31.810Z,5.85
2022-08-17T00:52:23.088Z,6.37
2022-08-17T00:55:09.908Z,6.60
2022-08-17T00:58:00.560Z,6.43
2022-08-17T01:00:48.075Z,6.38
2022-08-17T01:03:36.974Z,5.95
2022-08-17T01:06:24.297Z,6.55
2022-08-17T01:09:10.463Z,6.80
2022-08-17T01:11:56.529Z,7.45
2022-08-17T01:14:43.024Z,7.20
2022-08-17T01:17:28.928Z,6.53
2022-08-17T01:20:15.037Z,6.60
2022-08-17T01:23:01.959Z,6.70
2022-08-17T01:26:01.266Z,6.45
2022-08-17T01:28:54.242Z,6.40
2022-08-17T01:31:50.008Z,6.93
2022-08-17T01:34:42.570Z,6.88
2022-08-17T01:37:37.944Z,6.68
2022-08-17T01:40:40.870Z,6.35
2022-08-17T01:43:32.046Z,6.00
2022-08-17T01:46:26.969Z,6.68
2022-08-17T01:49:13.097Z,6.35
2022-08-17T01:52:07.121Z,6.40
2022-08-17T01:54:53.734Z,6.93
2022-08-17T01:57:39.772Z,6.43
2022-08-17T02:00:27.037Z,6.95
2022-08-17T02:03:34.981Z,6.38
2022-08-17T02:06:27.553Z,6.60
2022-08-17T02:09:16.739Z,6.47
2022-08-17T02:12:38.202Z,6.72
2022-08-17T02:15:12.405Z,6.78
2022-08-17T02:17:58.513Z,6.43
2022-08-17T02:20:44.771Z,6.47
2022-08-17T02:23:34.605Z,6.70
2022-08-17T02:26:24.038Z,6.30
2022-08-17T02:29:13.613Z,6.60
2022-08-17T02:32:01.864Z,6.82
2022-08-17T02:34:48.308Z,6.45
2022-08-17T02:37:35.404Z,7.10
2022-08-17T02:40:35.619Z,7.20
2022-08-17T02:43:22.489Z,7.28
2022-08-17T02:46:08.879Z,6.68
2022-08-17T02:48:54.890Z,6.50
2022-08-17T02:51:40.919Z,7.47
2022-08-17T02:54:40.354Z,7.13
2022-08-17T02:57:28.142Z,6.70
2022-08-17T03:00:29.474Z,7.00
2022-08-17T03:03:20.093Z,6.55
2022-08-17T03:06:07.790Z,7.55
2022-08-17T03:08:54.618Z,6.20
2022-08-17T03:11:40.605Z,6.25
2022-08-17T03:14:26.564Z,6.37
2022-08-17T03:17:17.127Z,6.50
2022-08-17T03:20:05.440Z,6.60
2022-08-17T03:22:55.013Z,6.38
2022-08-17T03:25:47.927Z,5.78
2022-08-17T03:28:39.454Z,6.13
2022-08-17T03:31:25.646Z,5.78
2022-08-17T03:34:11.551Z,6.17
2022-08-17T03:36:57.431Z,6.13
2022-08-17T03:39:43.441Z,6.23
2022-08-17T03:42:32.215Z,6.95
2022-08-17T03:45:40.933Z,6.50
2022-08-17T03:48:46.897Z,6.30
2022-08-17T03:51:51.282Z,6.50
2022-08-17T03:54:56.146Z,6.43
2022-08-17T03:57:41.968Z,6.50
2022-08-17T04:00:27.946Z,6.33
2022-08-17T04:03:14.942Z,6.35
2022-08-17T04:06:02.249Z,6.22
2022-08-17T04:08:48.409Z,6.45
2022-08-17T04:11:35.542Z,6.82
2022-08-17T04:14:21.797Z,6.10
2022-08-17T04:17:07.834Z,6.68
2022-08-17T04:19:54.821Z,6.77
2022-08-17T04:25:27.368Z,7.05
2022-08-17T04:31:02.187Z,6.40
2022-08-17T04:33:48.262Z,6.47
2022-08-17T04:36:35.139Z,6.90
2022-08-17T04:39:21.004Z,7.32
2022-08-17T04:42:17.219Z,7.33
2022-08-17T04:45:04.758Z,6.87
2022-08-17T04:47:51.125Z,7.03
2022-08-17T04:50:42.750Z,7.28
2022-08-17T04:53:30.882Z,6.30
2022-08-17T04:56:18.116Z,6.38
2022-08-17T04:59:12.582Z,6.30
2022-08-17T05:01:58.718Z,6.43
2022-08-17T05:04:44.663Z,6.13
2022-08-17T05:07:31.707Z,7.10
2022-08-17T05:10:18.149Z,5.65
2022-08-17T05:13:10.810Z,6.10
2022-08-17T05:16:00.577Z,6.00
2022-08-17T05:18:46.942Z,9.50
2022-08-17T05:21:32.745Z,15.80
2022-08-17T05:24:39.091Z,6.75
2022-08-17T05:27:24.970Z,7.20
2022-08-17T05:30:17.500Z,5.18
2022-08-17T05:33:10.299Z,17.45
2022-08-17T05:35:58.621Z,7.22
2022-08-17T05:38:44.902Z,7.80
2022-08-17T05:41:30.868Z,7.87
2022-08-17T05:44:17.134Z,6.57
2022-08-17T05:47:05.413Z,6.40
2022-08-17T05:49:56.049Z,6.85
2022-08-17T05:53:00.318Z,7.00
2022-08-17T05:55:57.384Z,7.97
2022-08-17T05:58:55.469Z,8.00
2022-08-17T06:02:18.926Z,7.30
2022-08-17T06:05:14.354Z,7.45
2022-08-17T06:08:11.103Z,7.13
2022-08-17T06:11:30.286Z,6.77
2022-08-17T06:14:43.191Z,7.10
2022-08-17T06:17:31.112Z,6.70
2022-08-17T06:20:17.459Z,6.35
2022-08-17T06:23:08.725Z,6.93
2022-08-17T06:26:03.731Z,7.07
2022-08-17T06:29:04.324Z,6.70
2022-08-17T06:31:54.641Z,7.15
2022-08-17T06:34:43.620Z,6.63
2022-08-17T06:37:33.271Z,6.35
2022-08-17T06:40:36.378Z,6.53
2022-08-17T06:43:33.578Z,6.22
2022-08-17T06:46:29.702Z,6.28
2022-08-17T06:49:33.989Z,5.53
2022-08-17T06:52:46.090Z,4.90
2022-08-17T06:55:58.565Z,5.13
2022-08-17T06:58:45.500Z,5.38
2022-08-17T07:01:36.776Z,5.15
2022-08-17T07:04:30.048Z,4.78
2022-08-17T07:07:38.247Z,5.03
2022-08-17T07:10:26.077Z,4.95
2022-08-17T07:13:33.436Z,5.00
2022-08-17T07:19:07.554Z,4.95
2022-08-17T07:22:00.082Z,4.80
2022-08-17T07:24:51.529Z,4.63
2022-08-17T07:27:37.349Z,4.38
2022-08-17T07:30:47.365Z,4.97
2022-08-17T07:33:36.686Z,4.30
2022-08-17T07:36:30.063Z,4.45
2022-08-17T07:39:27.659Z,4.70
2022-08-17T07:42:13.886Z,4.32
2022-08-17T07:45:19.726Z,4.60
2022-08-17T07:48:21.386Z,4.72
2022-08-17T07:51:19.143Z,5.20
2022-08-17T07:54:30.229Z,4.72
2022-08-17T07:57:19.434Z,5.85
2022-08-17T08:00:16.501Z,4.95
2022-08-17T08:03:27.303Z,5.10
2022-08-17T08:06:24.466Z,5.70
2022-08-17T08:09:48.253Z,5.43
2022-08-17T08:13:00.402Z,4.53
2022-08-17T08:15:53.611Z,5.22
2022-08-17T08:18:54.451Z,5.18
2022-08-17T08:22:09.574Z,4.97
2022-08-17T08:25:11.211Z,5.72
2022-08-17T08:28:29.834Z,5.50
2022-08-17T08:31:43.882Z,4.95
2022-08-17T08:35:06.514Z,6.53
2022-08-17T08:38:01.225Z,4.80
2022-08-17T08:41:08.499Z,5.25
2022-08-17T08:44:18.794Z,4.63
2022-08-17T08:47:14.700Z,5.72
2022-08-17T08:50:37.974Z,4.88
2022-08-17T08:53:35.733Z,4.85
2022-08-17T08:57:19.842Z,4.60
2022-08-17T09:00:07.423Z,4.97
2022-08-17T09:03:11.706Z,4.80
2022-08-17T09:06:37.674Z,4.70
2022-08-17T09:10:12.132Z,4.90
2022-08-17T09:13:14.576Z,4.10
2022-08-17T09:16:30.092Z,4.40
2022-08-17T09:19:59.853Z,4.38
2022-08-17T09:22:52.798Z,4.38
2022-08-17T09:25:58.404Z,4.20
2022-08-17T09:28:52.970Z,4.03
2022-08-17T09:31:55.066Z,4.30
2022-08-17T09:34:48.499Z,4.28
2022-08-17T09:37:43.054Z,4.05
2022-08-17T09:40:51.206Z,4.57
2022-08-17T09:43:48.750Z,4.32
2022-08-17T09:46:53.271Z,3.97
2022-08-17T09:49:53.198Z,4.28
2022-08-17T09:52:41.122Z,4.82
2022-08-17T09:55:46.562Z,4.05
2022-08-17T09:58:44.926Z,4.22
2022-08-17T10:01:50.598Z,3.75
2022-08-17T10:04:44.921Z,4.20
2022-08-17T10:07:44.363Z,4.43
2022-08-17T10:10:42.644Z,3.70
2022-08-17T10:14:01.727Z,4.45
2022-08-17T10:17:27.412Z,3.90
2022-08-17T10:20:45.479Z,4.22
2022-08-17T10:23:50.230Z,4.00
2022-08-17T10:26:40.409Z,3.97
2022-08-17T10:29:55.629Z,3.75
2022-08-17T10:33:14.465Z,3.30
2022-08-17T10:36:10.714Z,3.72
2022-08-17T10:39:31.561Z,4.40
2022-08-17T10:42:32.987Z,3.53
2022-08-17T10:45:29.559Z,4.03
2022-08-17T10:48:30.649Z,3.80
2022-08-17T10:51:37.987Z,4.03
2022-08-17T10:54:39.802Z,4.30
2022-08-17T10:57:45.433Z,4.25
2022-08-17T11:00:43.553Z,4.15
2022-08-17T11:03:32.795Z,3.80
2022-08-17T11:06:32.100Z,3.95
2022-08-17T11:10:02.882Z,3.90
2022-08-17T11:13:08.921Z,4.18
2022-08-17T11:16:15.365Z,3.92
2022-08-17T11:19:10.534Z,3.97
2022-08-17T11:22:14.925Z,4.38
2022-08-17T11:25:17.262Z,3.78
2022-08-17T11:28:20.465Z,4.90
2022-08-17T11:31:38.539Z,3.75
2022-08-17T11:34:27.950Z,3.80
2022-08-17T11:37:55.208Z,3.75
2022-08-17T11:40:46.506Z,3.40
2022-08-17T11:44:04.125Z,4.18
2022-08-17T11:48:23.878Z,3.53
2022-08-17T11:51:27.824Z,4.15
2022-08-17T11:54:34.455Z,3.60
2022-08-17T11:57:27.045Z,4.18
2022-08-17T12:00:58.311Z,3.80
2022-08-17T12:03:55.241Z,4.22
2022-08-17T12:07:05.446Z,3.75
2022-08-17T12:09:53.567Z,3.70
2022-08-17T12:12:44.114Z,4.07
2022-08-17T12:15:42.014Z,3.80
2022-08-17T12:18:35.473Z,4.13
2022-08-17T12:21:41.943Z,4.03
2022-08-17T12:24:45.381Z,4.05
2022-08-17T12:27:46.204Z,4.00
2022-08-17T12:30:48.481Z,3.67
2022-08-17T12:33:43.633Z,3.30
2022-08-17T12:36:32.582Z,3.80
2022-08-17T12:39:21.889Z,3.78
2022-08-17T12:42:22.937Z,3.80
2022-08-17T12:45:23.720Z,3.55
2022-08-17T12:48:22.126Z,4.20
2022-08-17T12:51:08.927Z,3.83
2022-08-17T12:53:55.913Z,3.80
2022-08-17T12:56:45.897Z,3.80
2022-08-17T12:59:33.761Z,3.63
2022-08-17T13:02:30.199Z,3.47
2022-08-17T13:05:27.695Z,3.85
2022-08-17T13:08:39.088Z,3.85
2022-08-17T13:11:25.643Z,3.50
2022-08-17T13:14:11.518Z,3.53
2022-08-17T13:17:02.421Z,4.00
2022-08-17T13:19:50.799Z,3.50
2022-08-17T13:22:37.440Z,3.45
2022-08-17T13:25:24.353Z,3.20
2022-08-17T13:28:18.969Z,3.42
2022-08-17T13:31:28.010Z,3.22
2022-08-17T13:34:14.041Z,3.20
2022-08-17T13:37:30.127Z,3.15
2022-08-17T13:40:18.981Z,3.58
2022-08-17T13:43:05.531Z,2.80
2022-08-17T13:48:38.304Z,2.57
2022-08-17T13:51:31.038Z,3.45
2022-08-17T13:54:31.026Z,3.20
2022-08-17T13:57:23.334Z,3.08
2022-08-17T14:00:33.094Z,3.05
2022-08-17T14:03:20.223Z,2.95
2022-08-17T14:06:07.370Z,3.03
2022-08-17T14:08:55.887Z,2.35
2022-08-17T14:11:43.215Z,2.88
2022-08-17T14:14:30.165Z,2.88
2022-08-17T14:17:17.051Z,2.95
2022-08-17T14:20:04.510Z,2.70
2022-08-17T14:22:53.626Z,2.83
2022-08-17T14:25:40.143Z,2.88
2022-08-17T14:31:13.962Z,2.85
2022-08-17T14:34:00.033Z,2.70
2022-08-17T14:36:48.672Z,2.80
2022-08-17T14:39:34.589Z,2.78
2022-08-17T14:42:20.576Z,3.10
2022-08-17T14:45:32.395Z,2.63
2022-08-17T14:48:16.542Z,2.97
2022-08-17T14:51:04.786Z,2.75
2022-08-17T14:53:50.890Z,2.88
2022-08-17T14:56:39.084Z,2.42
2022-08-17T14:59:26.695Z,2.40
2022-08-17T15:02:13.281Z,3.03
2022-08-17T15:05:05.307Z,2.80
2022-08-17T15:07:53.441Z,2.60
2022-08-17T15:10:41.040Z,2.90
2022-08-17T15:13:27.607Z,2.60
2022-08-17T15:16:13.820Z,2.72
2022-08-17T15:19:00.221Z,2.55
2022-08-17T15:21:46.926Z,2.65
2022-08-17T15:24:33.654Z,2.75
2022-08-17T15:27:24.260Z,2.80
2022-08-17T15:30:19.072Z,2.60
2022-08-17T15:33:05.547Z,2.63
2022-08-17T15:41:28.112Z,2.83
2022-08-17T15:44:14.261Z,2.90
2022-08-17T15:47:00.381Z,2.63
2022-08-17T15:49:46.854Z,2.88
2022-08-17T15:52:40.021Z,2.80
2022-08-17T15:55:28.378Z,3.03
2022-08-17T15:58:14.536Z,2.92
2022-08-17T16:01:14.868Z,2.65
2022-08-17T16:04:14.894Z,2.75
2022-08-17T16:07:11.307Z,2.95
2022-08-17T16:09:57.167Z,2.78
2022-08-17T16:12:47.994Z,2.80
2022-08-17T16:15:34.253Z,2.60
2022-08-17T16:18:20.820Z,2.95
2022-08-17T16:21:31.229Z,2.72
2022-08-17T16:24:29.948Z,2.55
2022-08-17T16:27:15.806Z,2.97
2022-08-17T16:30:02.772Z,2.70
2022-08-17T16:32:51.750Z,2.67
2022-08-17T16:35:38.266Z,2.90
2022-08-17T16:38:24.615Z,2.40
2022-08-17T16:41:10.809Z,2.92
2022-08-17T16:46:45.764Z,2.97
2022-08-17T16:49:37.481Z,3.13
2022-08-17T16:52:32.437Z,2.80
2022-08-17T16:55:21.913Z,2.88
2022-08-17T16:58:08.872Z,2.78
2022-08-17T17:00:59.754Z,3.13
2022-08-17T17:03:53.100Z,2.88
2022-08-17T17:07:07.049Z,2.70
2022-08-17T17:09:55.446Z,2.67
2022-08-17T17:13:01.517Z,2.90
2022-08-17T17:16:04.149Z,3.30
2022-08-17T17:18:53.238Z,2.95
2022-08-17T17:21:55.973Z,3.25
2022-08-17T17:25:14.245Z,3.00
2022-08-17T17:28:15.962Z,2.72
2022-08-17T17:31:17.713Z,3.20
2022-08-17T17:34:06.231Z,3.05
2022-08-17T17:37:01.567Z,3.53
2022-08-17T17:39:55.866Z,3.22
2022-08-17T17:42:43.761Z,3.42
2022-08-17T17:45:37.347Z,3.00
2022-08-17T17:48:23.666Z,3.22
2022-08-17T17:52:09.419Z,3.63
2022-08-17T17:55:18.646Z,3.45
2022-08-17T17:58:21.825Z,3.67
2022-08-17T18:01:08.246Z,3.30
2022-08-17T18:04:20.730Z,3.30
2022-08-17T18:07:32.437Z,4.00
2022-08-17T18:10:48.963Z,3.60
2022-08-17T18:13:50.575Z,4.65
2022-08-17T18:16:42.794Z,4.43
2022-08-17T18:19:31.411Z,4.47
2022-08-17T18:22:20.168Z,4.13
2022-08-17T18:25:59.393Z,4.57
2022-08-17T18:28:51.309Z,4.05
2022-08-17T18:31:37.210Z,4.18
2022-08-17T18:37:49.216Z,4.47
2022-08-17T18:40:37.686Z,4.30
2022-08-17T18:43:43.881Z,4.45
2022-08-17T18:46:40.115Z,4.68
2022-08-17T18:49:28.634Z,4.72
2022-08-17T18:52:34.111Z,4.60
2022-08-17T18:55:30.021Z,4.45
2022-08-17T18:58:24.290Z,4.57
2022-08-17T19:01:21.291Z,4.15
2022-08-17T19:04:34.718Z,4.20
2022-08-17T19:07:24.178Z,4.22
2022-08-17T19:10:19.540Z,4.70
2022-08-17T19:13:14.116Z,3.90
2022-08-17T19:16:51.000Z,4.88
2022-08-17T19:19:49.360Z,4.55
2022-08-17T19:23:18.863Z,4.57
2022-08-17T19:26:11.937Z,4.40
2022-08-17T19:29:29.620Z,4.38
2022-08-17T19:32:19.549Z,4.20
2022-08-17T19:35:11.400Z,4.43
2022-08-17T19:38:24.982Z,4.10
2022-08-17T19:41:28.228Z,4.20
2022-08-17T19:44:33.219Z,4.90
2022-08-17T19:47:53.658Z,4.32
2022-08-17T19:50:54.207Z,3.90
2022-08-17T19:54:05.950Z,3.80
2022-08-17T19:57:12.446Z,4.25
2022-08-17T20:00:05.026Z,4.40
2022-08-17T20:03:18.775Z,4.07
2022-08-17T20:06:15.052Z,4.25
2022-08-17T20:09:14.775Z,4.10
2022-08-17T20:12:14.010Z,4.45
2022-08-17T20:15:33.013Z,4.63
2022-08-17T20:18:30.866Z,4.10
2022-08-17T20:21:49.065Z,3.80
2022-08-17T20:24:41.286Z,3.97
2022-08-17T20:27:47.844Z,3.67
2022-08-17T20:30:41.991Z,4.07
2022-08-17T20:33:34.393Z,4.13
2022-08-17T20:36:24.300Z,4.70
2022-08-17T20:39:32.191Z,4.30
2022-08-17T20:42:20.671Z,4.07
2022-08-17T20:45:21.920Z,4.37
2022-08-17T20:48:36.871Z,4.10
2022-08-17T20:51:27.301Z,4.05
2022-08-17T20:54:19.455Z,4.00
2022-08-17T20:57:09.241Z,4.47
2022-08-17T21:00:28.633Z,3.92
2022-08-17T21:03:23.851Z,3.83
2022-08-17T21:06:17.360Z,4.00
2022-08-17T21:09:13.224Z,3.60
2022-08-17T21:12:04.454Z,3.97
2022-08-17T21:15:05.520Z,3.67
2022-08-17T21:18:15.025Z,4.07
2022-08-17T21:21:07.410Z,3.65
2022-08-17T21:23:53.492Z,4.35
2022-08-17T21:27:00.159Z,4.28
2022-08-17T21:30:06.723Z,4.18
2022-08-17T21:33:25.177Z,3.70
2022-08-17T21:36:15.158Z,3.78
2022-08-17T21:39:08.831Z,3.95
2022-08-17T21:41:56.922Z,3.65
2022-08-17T21:44:52.102Z,4.10
2022-08-17T21:47:47.491Z,4.25
2022-08-17T21:50:34.325Z,4.25
2022-08-17T21:53:32.922Z,3.80
2022-08-17T21:56:47.037Z,3.90
2022-08-17T21:59:36.987Z,3.90
2022-08-17T22:02:33.783Z,4.32
2022-08-17T22:05:32.845Z,4.10
2022-08-17T22:08:22.552Z,4.00
2022-08-17T22:11:09.234Z,4.03
2022-08-17T22:14:05.490Z,4.20
2022-08-17T22:17:25.746Z,4.05
2022-08-17T22:20:18.900Z,4.15
2022-08-17T22:23:30.307Z,4.70
2022-08-17T22:26:18.338Z,4.53
2022-08-17T22:29:04.265Z,5.00
2022-08-17T22:31:56.528Z,5.28
2022-08-17T22:34:42.408Z,6.65
2022-08-17T22:37:29.339Z,6.75
2022-08-17T22:40:31.695Z,7.43
2022-08-17T22:43:24.223Z,7.13
2022-08-17T22:46:13.060Z,8.18
2022-08-17T22:48:59.775Z,7.70
2022-08-17T22:51:45.746Z,8.05
2022-08-17T22:54:50.813Z,8.85
2022-08-17T22:57:55.349Z,9.27
2022-08-17T23:00:44.995Z,9.82
2022-08-17T23:03:31.392Z,9.98
2022-08-17T23:06:17.277Z,9.20
2022-08-17T23:09:05.831Z,9.63
2022-08-17T23:11:58.562Z,9.75
2022-08-17T23:14:46.966Z,9.50
2022-08-17T23:17:37.092Z,9.05
2022-08-17T23:20:23.924Z,9.73
2022-08-17T23:23:13.878Z,9.73
2022-08-17T23:25:59.894Z,9.55
2022-08-17T23:28:46.153Z,9.70
2022-08-17T23:31:34.799Z,9.27
2022-08-17T23:34:21.292Z,8.75
2022-08-17T23:37:09.640Z,8.70
2022-08-17T23:39:55.677Z,8.90
2022-08-17T23:42:46.291Z,9.15
2022-08-17T23:45:33.262Z,9.23
2022-08-17T23:48:28.426Z,9.95
2022-08-17T23:51:27.393Z,9.20
2022-08-17T23:54:22.796Z,9.50
2022-08-17T23:57:09.679Z,8.90
2022-08-17T23:59:56.034Z,9.82
